sensor_id;sensor_type;location;lat;lon;timestamp;pressure;altitude;pressure_sealevel;temperature;humidity
13241;BME280;6687;47.790;7.322;2023-05-27T05:24:34;99466.72;;;17.48;50.82
13241;BME280;6687;47.790;7.322;2023-05-27T05:27:01;99468.44;;;17.00;50.87
13241;BME280;6687;47.790;7.322;2023-05-27T05:29:27;99479.06;;;16.90;50.31
13241;BME280;6687;47.790;7.322;2023-05-27T05:31:54;99472.41;;;17.24;49.68
13241;BME280;6687;47.790;7.322;2023-05-27T05:34:21;99472.78;;;17.52;49.42
13241;BME280;6687;47.790;7.322;2023-05-27T05:36:47;99463.66;;;17.75;49.56
13241;BME280;6687;47.790;7.322;2023-05-27T05:39:14;99466.88;;;17.41;50.03
13241;BME280;6687;47.790;7.322;2023-05-27T05:41:43;99470.78;;;17.17;48.88
13241;BME280;6687;47.790;7.322;2023-05-27T05:44:09;99465.97;;;16.89;50.19
13241;BME280;6687;47.790;7.322;2023-05-27T05:46:36;99469.66;;;17.32;48.85
13241;BME280;6687;47.790;7.322;2023-05-27T05:49:03;99463.66;;;17.73;49.17
13241;BME280;6687;47.790;7.322;2023-05-27T05:51:30;99471.06;;;17.51;49.10
13241;BME280;6687;47.790;7.322;2023-05-27T05:53:57;99461.41;;;17.53;48.69
13241;BME280;6687;47.790;7.322;2023-05-27T05:56:24;99464.25;;;17.89;47.78
13241;BME280;6687;47.790;7.322;2023-05-27T05:58:52;99464.56;;;18.16;48.05
13241;BME280;6687;47.790;7.322;2023-05-27T06:01:19;99464.97;;;17.97;48.14
13241;BME280;6687;47.790;7.322;2023-05-27T06:03:46;99460.88;;;18.26;47.36
13241;BME280;6687;47.790;7.322;2023-05-27T06:06:12;99470.38;;;18.30;47.08
13241;BME280;6687;47.790;7.322;2023-05-27T06:08:40;99471.69;;;18.11;47.35
13241;BME280;6687;47.790;7.322;2023-05-27T06:11:07;99473.00;;;18.71;46.56
13241;BME280;6687;47.790;7.322;2023-05-27T06:13:34;99470.13;;;18.83;45.94
13241;BME280;6687;47.790;7.322;2023-05-27T06:16:02;99472.81;;;18.80;46.43
13241;BME280;6687;47.790;7.322;2023-05-27T06:18:28;99469.78;;;18.19;47.14
13241;BME280;6687;47.790;7.322;2023-05-27T06:20:55;99465.38;;;18.60;46.26
13241;BME280;6687;47.790;7.322;2023-05-27T06:23:22;99463.28;;;18.37;46.64
13241;BME280;6687;47.790;7.322;2023-05-27T06:25:49;99467.22;;;18.94;46.49
13241;BME280;6687;47.790;7.322;2023-05-27T06:28:15;99462.13;;;19.23;45.23
13241;BME280;6687;47.790;7.322;2023-05-27T06:30:42;99466.19;;;19.01;44.80
13241;BME280;6687;47.790;7.322;2023-05-27T06:33:10;99457.63;;;18.93;46.01
13241;BME280;6687;47.790;7.322;2023-05-27T06:35:37;99452.09;;;19.05;45.37
13241;BME280;6687;47.790;7.322;2023-05-27T06:38:05;99452.69;;;19.49;44.83
13241;BME280;6687;47.790;7.322;2023-05-27T06:40:32;99449.38;;;19.75;44.97
13241;BME280;6687;47.790;7.322;2023-05-27T06:42:58;99455.34;;;19.82;44.27
13241;BME280;6687;47.790;7.322;2023-05-27T06:45:25;99448.88;;;19.61;44.08
13241;BME280;6687;47.790;7.322;2023-05-27T06:47:52;99451.38;;;19.33;44.28
13241;BME280;6687;47.790;7.322;2023-05-27T06:50:20;99448.53;;;20.06;43.63
13241;BME280;6687;47.790;7.322;2023-05-27T06:52:47;99443.88;;;20.16;43.32
13241;BME280;6687;47.790;7.322;2023-05-27T06:55:13;99446.59;;;20.41;43.00
13241;BME280;6687;47.790;7.322;2023-05-27T06:57:40;99441.00;;;20.81;42.83
13241;BME280;6687;47.790;7.322;2023-05-27T07:00:07;99437.75;;;21.00;43.21
13241;BME280;6687;47.790;7.322;2023-05-27T07:02:34;99435.63;;;21.11;41.88
13241;BME280;6687;47.790;7.322;2023-05-27T07:05:01;99442.38;;;20.65;43.01
13241;BME280;6687;47.790;7.322;2023-05-27T07:07:29;99438.75;;;21.22;42.42
13241;BME280;6687;47.790;7.322;2023-05-27T07:09:56;99447.97;;;19.95;43.07
13241;BME280;6687;47.790;7.322;2023-05-27T07:12:23;99446.16;;;21.11;42.00
13241;BME280;6687;47.790;7.322;2023-05-27T07:14:50;99446.97;;;21.13;41.29
13241;BME280;6687;47.790;7.322;2023-05-27T07:17:16;99446.47;;;20.45;42.48
13241;BME280;6687;47.790;7.322;2023-05-27T07:19:43;99444.34;;;21.13;41.76
13241;BME280;6687;47.790;7.322;2023-05-27T07:22:10;99447.91;;;20.56;42.49
13241;BME280;6687;47.790;7.322;2023-05-27T07:24:38;99439.81;;;21.17;40.63
13241;BME280;6687;47.790;7.322;2023-05-27T07:27:04;99436.53;;;21.62;41.50
13241;BME280;6687;47.790;7.322;2023-05-27T07:29:32;99429.63;;;22.07;40.98
13241;BME280;6687;47.790;7.322;2023-05-27T07:31:59;99433.16;;;21.82;39.93
13241;BME280;6687;47.790;7.322;2023-05-27T07:34:25;99432.94;;;21.88;40.38
13241;BME280;6687;47.790;7.322;2023-05-27T07:36:52;99435.22;;;21.74;40.40
13241;BME280;6687;47.790;7.322;2023-05-27T07:39:19;99440.69;;;22.40;39.34
13241;BME280;6687;47.790;7.322;2023-05-27T07:41:47;99427.75;;;21.61;39.79
13241;BME280;6687;47.790;7.322;2023-05-27T07:44:14;99422.94;;;22.20;39.80
13241;BME280;6687;47.790;7.322;2023-05-27T07:46:40;99428.47;;;22.37;39.56
13241;BME280;6687;47.790;7.322;2023-05-27T07:49:07;99429.41;;;22.36;39.13
13241;BME280;6687;47.790;7.322;2023-05-27T07:51:34;99434.56;;;22.39;39.01
13241;BME280;6687;47.790;7.322;2023-05-27T07:54:01;99431.56;;;21.78;39.42
13241;BME280;6687;47.790;7.322;2023-05-27T07:56:27;99434.00;;;22.97;39.12
13241;BME280;6687;47.790;7.322;2023-05-27T07:58:55;99429.28;;;23.06;38.98
13241;BME280;6687;47.790;7.322;2023-05-27T08:01:22;99428.22;;;23.10;38.87
13241;BME280;6687;47.790;7.322;2023-05-27T08:03:50;99437.75;;;22.48;38.84
13241;BME280;6687;47.790;7.322;2023-05-27T08:06:17;99420.19;;;22.91;37.78
13241;BME280;6687;47.790;7.322;2023-05-27T08:08:44;99421.63;;;23.20;38.93
13241;BME280;6687;47.790;7.322;2023-05-27T08:11:12;99418.06;;;22.99;39.29
13241;BME280;6687;47.790;7.322;2023-05-27T08:13:39;99410.84;;;22.60;38.04
13241;BME280;6687;47.790;7.322;2023-05-27T08:16:07;99416.69;;;22.46;38.46
13241;BME280;6687;47.790;7.322;2023-05-27T08:18:35;99408.44;;;23.59;38.45
13241;BME280;6687;47.790;7.322;2023-05-27T08:21:02;99404.69;;;23.86;37.29
13241;BME280;6687;47.790;7.322;2023-05-27T08:23:29;99405.56;;;23.25;37.76
13241;BME280;6687;47.790;7.322;2023-05-27T08:25:55;99408.81;;;23.91;38.06
13241;BME280;6687;47.790;7.322;2023-05-27T08:28:22;99398.38;;;24.26;37.39
13241;BME280;6687;47.790;7.322;2023-05-27T08:30:49;99401.41;;;23.99;36.66
13241;BME280;6687;47.790;7.322;2023-05-27T08:33:17;99399.34;;;24.42;37.07
13241;BME280;6687;47.790;7.322;2023-05-27T08:35:43;99397.69;;;24.04;36.11
13241;BME280;6687;47.790;7.322;2023-05-27T08:38:10;99392.22;;;24.07;37.09
13241;BME280;6687;47.790;7.322;2023-05-27T08:40:37;99398.50;;;23.85;38.01
13241;BME280;6687;47.790;7.322;2023-05-27T08:43:06;99387.50;;;24.32;35.50
13241;BME280;6687;47.790;7.322;2023-05-27T08:45:32;99384.63;;;23.80;35.89
13241;BME280;6687;47.790;7.322;2023-05-27T08:48:01;99380.13;;;24.75;35.73
13241;BME280;6687;47.790;7.322;2023-05-27T08:50:29;99383.88;;;25.06;35.04
13241;BME280;6687;47.790;7.322;2023-05-27T08:52:56;99377.47;;;25.10;35.08
13241;BME280;6687;47.790;7.322;2023-05-27T08:55:24;99377.47;;;24.93;34.95
13241;BME280;6687;47.790;7.322;2023-05-27T08:57:54;99382.63;;;24.23;35.63
13241;BME280;6687;47.790;7.322;2023-05-27T09:00:21;99371.75;;;24.29;35.20
13241;BME280;6687;47.790;7.322;2023-05-27T09:02:48;99368.00;;;24.52;35.10
13241;BME280;6687;47.790;7.322;2023-05-27T09:05:15;99368.59;;;24.94;34.84
13241;BME280;6687;47.790;7.322;2023-05-27T09:07:44;99365.66;;;25.84;34.49
13241;BME280;6687;47.790;7.322;2023-05-27T09:10:11;99364.53;;;24.69;34.77
13241;BME280;6687;47.790;7.322;2023-05-27T09:12:38;99365.47;;;24.86;34.80
13241;BME280;6687;47.790;7.322;2023-05-27T09:15:09;99356.06;;;25.15;34.01
13241;BME280;6687;47.790;7.322;2023-05-27T09:17:40;99350.97;;;25.28;34.19
13241;BME280;6687;47.790;7.322;2023-05-27T09:20:07;99349.69;;;25.68;33.80
13241;BME280;6687;47.790;7.322;2023-05-27T09:22:34;99353.09;;;25.54;35.46
13241;BME280;6687;47.790;7.322;2023-05-27T09:25:02;99342.50;;;26.04;33.56
13241;BME280;6687;47.790;7.322;2023-05-27T09:27:31;99332.94;;;25.84;33.58
13241;BME280;6687;47.790;7.322;2023-05-27T09:30:05;99345.16;;;26.04;33.33
13241;BME280;6687;47.790;7.322;2023-05-27T09:32:32;99343.84;;;26.43;33.59
13241;BME280;6687;47.790;7.322;2023-05-27T09:35:00;99334.91;;;25.31;33.63
13241;BME280;6687;47.790;7.322;2023-05-27T09:37:27;99329.06;;;26.07;33.36
13241;BME280;6687;47.790;7.322;2023-05-27T09:39:57;99327.16;;;26.25;33.94
13241;BME280;6687;47.790;7.322;2023-05-27T09:42:25;99324.97;;;27.08;32.48
13241;BME280;6687;47.790;7.322;2023-05-27T09:44:54;99324.56;;;27.30;32.38
13241;BME280;6687;47.790;7.322;2023-05-27T09:47:21;99325.34;;;27.02;31.73
13241;BME280;6687;47.790;7.322;2023-05-27T09:49:52;99321.78;;;26.72;32.06
13241;BME280;6687;47.790;7.322;2023-05-27T09:52:19;99324.94;;;27.38;31.40
13241;BME280;6687;47.790;7.322;2023-05-27T09:54:48;99317.88;;;27.08;32.00
13241;BME280;6687;47.790;7.322;2023-05-27T09:57:15;99319.22;;;27.73;32.50
13241;BME280;6687;47.790;7.322;2023-05-27T09:59:45;99319.31;;;27.86;32.75
13241;BME280;6687;47.790;7.322;2023-05-27T10:02:16;99313.72;;;27.62;31.62
13241;BME280;6687;47.790;7.322;2023-05-27T10:04:44;99317.47;;;28.01;31.40
13241;BME280;6687;47.790;7.322;2023-05-27T10:07:15;99318.28;;;27.31;31.42
13241;BME280;6687;47.790;7.322;2023-05-27T10:09:44;99309.72;;;28.52;31.33
13241;BME280;6687;47.790;7.322;2023-05-27T10:12:12;99315.16;;;28.23;29.91
13241;BME280;6687;47.790;7.322;2023-05-27T10:14:41;99313.03;;;28.28;30.42
13241;BME280;6687;47.790;7.322;2023-05-27T10:17:11;99312.31;;;28.39;31.01
13241;BME280;6687;47.790;7.322;2023-05-27T10:19:49;99320.00;;;27.32;30.56
13241;BME280;6687;47.790;7.322;2023-05-27T10:22:15;99317.13;;;28.61;30.10
13241;BME280;6687;47.790;7.322;2023-05-27T10:24:46;99316.19;;;27.93;29.85
13241;BME280;6687;47.790;7.322;2023-05-27T10:27:13;99309.75;;;28.38;30.20
13241;BME280;6687;47.790;7.322;2023-05-27T10:29:40;99310.50;;;28.67;29.91
13241;BME280;6687;47.790;7.322;2023-05-27T10:32:07;99307.22;;;27.94;30.73
13241;BME280;6687;47.790;7.322;2023-05-27T10:34:36;99296.25;;;28.13;29.72
13241;BME280;6687;47.790;7.322;2023-05-27T10:37:03;99295.47;;;28.39;29.60
13241;BME280;6687;47.790;7.322;2023-05-27T10:39:30;99280.03;;;29.09;30.25
13241;BME280;6687;47.790;7.322;2023-05-27T10:41:57;99286.53;;;28.40;30.07
13241;BME280;6687;47.790;7.322;2023-05-27T10:44:27;99285.25;;;28.98;30.68
13241;BME280;6687;47.790;7.322;2023-05-27T10:46:59;99277.06;;;29.14;29.87
13241;BME280;6687;47.790;7.322;2023-05-27T10:49:26;99279.59;;;28.90;30.18
13241;BME280;6687;47.790;7.322;2023-05-27T10:52:05;99275.78;;;29.20;29.38
13241;BME280;6687;47.790;7.322;2023-05-27T10:54:36;99275.69;;;29.71;29.16
13241;BME280;6687;47.790;7.322;2023-05-27T10:57:03;99280.28;;;30.30;28.35
13241;BME280;6687;47.790;7.322;2023-05-27T10:59:40;99268.53;;;29.22;28.93
13241;BME280;6687;47.790;7.322;2023-05-27T11:02:11;99268.72;;;29.31;28.97
13241;BME280;6687;47.790;7.322;2023-05-27T11:04:38;99272.00;;;29.98;28.42
13241;BME280;6687;47.790;7.322;2023-05-27T11:07:07;99259.56;;;29.85;28.63
13241;BME280;6687;47.790;7.322;2023-05-27T11:09:42;99263.06;;;29.36;28.73
13241;BME280;6687;47.790;7.322;2023-05-27T11:12:13;99261.91;;;29.64;28.48
13241;BME280;6687;47.790;7.322;2023-05-27T11:14:41;99261.66;;;30.17;28.00
13241;BME280;6687;47.790;7.322;2023-05-27T11:17:09;99245.88;;;30.49;27.67
13241;BME280;6687;47.790;7.322;2023-05-27T11:19:38;99242.97;;;29.43;28.37
13241;BME280;6687;47.790;7.322;2023-05-27T11:22:06;99257.72;;;30.58;27.44
13241;BME280;6687;47.790;7.322;2023-05-27T11:24:34;99239.56;;;29.78;28.08
13241;BME280;6687;47.790;7.322;2023-05-27T11:27:08;99237.28;;;30.57;27.14
13241;BME280;6687;47.790;7.322;2023-05-27T11:29:34;99236.91;;;31.08;27.66
13241;BME280;6687;47.790;7.322;2023-05-27T11:32:01;99232.66;;;30.59;27.67
13241;BME280;6687;47.790;7.322;2023-05-27T11:34:28;99224.72;;;31.27;28.12
13241;BME280;6687;47.790;7.322;2023-05-27T11:36:55;99229.13;;;31.17;27.49
13241;BME280;6687;47.790;7.322;2023-05-27T11:39:23;99221.53;;;31.67;28.28
13241;BME280;6687;47.790;7.322;2023-05-27T11:41:51;99227.91;;;31.32;26.67
13241;BME280;6687;47.790;7.322;2023-05-27T11:44:18;99217.59;;;31.94;27.48
13241;BME280;6687;47.790;7.322;2023-05-27T11:46:46;99218.28;;;31.52;27.57
13241;BME280;6687;47.790;7.322;2023-05-27T11:49:15;99213.44;;;32.01;26.70
13241;BME280;6687;47.790;7.322;2023-05-27T11:51:44;99202.63;;;32.23;25.80
13241;BME280;6687;47.790;7.322;2023-05-27T11:54:18;99207.69;;;31.17;27.39
13241;BME280;6687;47.790;7.322;2023-05-27T11:56:48;99203.56;;;30.43;27.43
13241;BME280;6687;47.790;7.322;2023-05-27T11:59:15;99197.72;;;30.14;28.22
13241;BME280;6687;47.790;7.322;2023-05-27T12:01:42;99199.91;;;31.13;26.95
13241;BME280;6687;47.790;7.322;2023-05-27T12:04:09;99190.94;;;32.13;26.56
13241;BME280;6687;47.790;7.322;2023-05-27T12:06:36;99192.69;;;32.56;25.98
13241;BME280;6687;47.790;7.322;2023-05-27T12:09:03;99183.00;;;32.44;26.34
13241;BME280;6687;47.790;7.322;2023-05-27T12:11:30;99175.34;;;32.39;25.84
13241;BME280;6687;47.790;7.322;2023-05-27T12:13:58;99185.97;;;32.08;26.63
13241;BME280;6687;47.790;7.322;2023-05-27T12:16:25;99179.38;;;32.13;26.45
13241;BME280;6687;47.790;7.322;2023-05-27T12:18:52;99178.59;;;31.89;26.63
13241;BME280;6687;47.790;7.322;2023-05-27T12:21:19;99171.09;;;33.09;25.62
13241;BME280;6687;47.790;7.322;2023-05-27T12:23:46;99167.44;;;33.20;25.41
13241;BME280;6687;47.790;7.322;2023-05-27T12:26:14;99159.56;;;32.98;24.96
13241;BME280;6687;47.790;7.322;2023-05-27T12:28:41;99158.19;;;33.03;24.67
13241;BME280;6687;47.790;7.322;2023-05-27T12:31:09;99154.19;;;33.19;24.48
13241;BME280;6687;47.790;7.322;2023-05-27T12:33:36;99154.44;;;33.85;25.64
13241;BME280;6687;47.790;7.322;2023-05-27T12:36:03;99149.88;;;33.76;24.80
13241;BME280;6687;47.790;7.322;2023-05-27T12:38:31;99146.63;;;33.13;25.57
13241;BME280;6687;47.790;7.322;2023-05-27T12:40:57;99150.94;;;33.44;24.88
13241;BME280;6687;47.790;7.322;2023-05-27T12:43:24;99141.19;;;32.20;25.45
13241;BME280;6687;47.790;7.322;2023-05-27T12:45:51;99133.50;;;34.08;23.90
13241;BME280;6687;47.790;7.322;2023-05-27T12:48:20;99127.41;;;34.63;24.09
13241;BME280;6687;47.790;7.322;2023-05-27T12:50:47;99127.09;;;33.80;24.68
13241;BME280;6687;47.790;7.322;2023-05-27T12:53:13;99126.41;;;34.07;24.36
13241;BME280;6687;47.790;7.322;2023-05-27T12:55:42;99124.72;;;33.97;24.54
13241;BME280;6687;47.790;7.322;2023-05-27T12:58:08;99130.09;;;33.77;24.02
13241;BME280;6687;47.790;7.322;2023-05-27T13:00:35;99124.88;;;34.72;22.94
13241;BME280;6687;47.790;7.322;2023-05-27T13:03:02;99120.69;;;34.40;23.24
13241;BME280;6687;47.790;7.322;2023-05-27T13:05:30;99113.66;;;33.90;23.28
13241;BME280;6687;47.790;7.322;2023-05-27T13:07:58;99110.09;;;33.60;24.32
13241;BME280;6687;47.790;7.322;2023-05-27T13:10:25;99109.72;;;34.71;24.36
13241;BME280;6687;47.790;7.322;2023-05-27T13:12:53;99098.38;;;34.20;23.26
13241;BME280;6687;47.790;7.322;2023-05-27T13:15:20;99110.44;;;34.73;23.07
13241;BME280;6687;47.790;7.322;2023-05-27T13:17:49;99104.75;;;34.29;23.13
13241;BME280;6687;47.790;7.322;2023-05-27T13:20:17;99108.72;;;34.72;23.43
13241;BME280;6687;47.790;7.322;2023-05-27T13:22:46;99104.34;;;34.98;24.10
13241;BME280;6687;47.790;7.322;2023-05-27T13:25:14;99097.75;;;34.83;23.18
13241;BME280;6687;47.790;7.322;2023-05-27T13:27:42;99100.78;;;34.80;22.42
13241;BME280;6687;47.790;7.322;2023-05-27T13:30:11;99093.16;;;34.65;23.01
13241;BME280;6687;47.790;7.322;2023-05-27T13:32:38;99099.53;;;34.64;22.44
13241;BME280;6687;47.790;7.322;2023-05-27T13:35:05;99102.31;;;34.25;22.60
13241;BME280;6687;47.790;7.322;2023-05-27T13:37:32;99087.97;;;35.10;23.91
13241;BME280;6687;47.790;7.322;2023-05-27T13:40:00;99085.97;;;35.75;21.68
13241;BME280;6687;47.790;7.322;2023-05-27T13:42:27;99078.41;;;35.25;22.01
13241;BME280;6687;47.790;7.322;2023-05-27T13:44:54;99081.84;;;33.95;23.26
13241;BME280;6687;47.790;7.322;2023-05-27T13:47:20;99081.88;;;35.53;22.40
13241;BME280;6687;47.790;7.322;2023-05-27T13:49:47;99084.88;;;36.04;22.39
13241;BME280;6687;47.790;7.322;2023-05-27T13:52:14;99079.19;;;36.33;21.70
13241;BME280;6687;47.790;7.322;2023-05-27T13:54:41;99077.03;;;35.93;21.34
13241;BME280;6687;47.790;7.322;2023-05-27T13:57:09;99081.66;;;35.47;22.53
13241;BME280;6687;47.790;7.322;2023-05-27T13:59:36;99073.38;;;34.47;21.90
13241;BME280;6687;47.790;7.322;2023-05-27T14:02:02;99070.31;;;34.97;21.87
13241;BME280;6687;47.790;7.322;2023-05-27T14:04:31;99063.88;;;34.90;21.68
13241;BME280;6687;47.790;7.322;2023-05-27T14:06:58;99060.06;;;34.45;22.88
13241;BME280;6687;47.790;7.322;2023-05-27T14:09:24;99057.66;;;33.85;23.76
13241;BME280;6687;47.790;7.322;2023-05-27T14:11:51;99056.34;;;34.66;22.80
13241;BME280;6687;47.790;7.322;2023-05-27T14:14:19;99056.34;;;34.56;22.23
13241;BME280;6687;47.790;7.322;2023-05-27T14:16:46;99040.63;;;35.35;21.49
13241;BME280;6687;47.790;7.322;2023-05-27T14:19:13;99047.72;;;35.36;21.61
13241;BME280;6687;47.790;7.322;2023-05-27T14:21:39;99035.09;;;35.09;22.06
13241;BME280;6687;47.790;7.322;2023-05-27T14:24:06;99043.50;;;33.64;23.07
13241;BME280;6687;47.790;7.322;2023-05-27T14:26:33;99031.56;;;35.98;21.04
13241;BME280;6687;47.790;7.322;2023-05-27T14:29:00;99030.81;;;34.33;22.22
13241;BME280;6687;47.790;7.322;2023-05-27T14:31:28;99032.38;;;34.63;22.42
13241;BME280;6687;47.790;7.322;2023-05-27T14:33:54;99021.44;;;35.56;23.08
13241;BME280;6687;47.790;7.322;2023-05-27T14:36:21;99022.50;;;35.63;21.90
13241;BME280;6687;47.790;7.322;2023-05-27T14:38:48;99013.78;;;36.13;21.53
13241;BME280;6687;47.790;7.322;2023-05-27T14:41:15;99008.47;;;35.05;22.22
13241;BME280;6687;47.790;7.322;2023-05-27T14:43:42;99009.78;;;36.17;22.78
13241;BME280;6687;47.790;7.322;2023-05-27T14:46:08;99012.78;;;34.43;23.05
13241;BME280;6687;47.790;7.322;2023-05-27T14:48:37;99008.78;;;35.02;22.42
13241;BME280;6687;47.790;7.322;2023-05-27T14:51:04;99005.50;;;35.44;21.53
13241;BME280;6687;47.790;7.322;2023-05-27T14:53:30;98994.19;;;36.37;22.84
13241;BME280;6687;47.790;7.322;2023-05-27T14:55:57;98991.94;;;35.72;21.64
13241;BME280;6687;47.790;7.322;2023-05-27T14:58:24;99003.13;;;35.23;21.95
13241;BME280;6687;47.790;7.322;2023-05-27T15:00:50;98994.25;;;35.49;21.96
13241;BME280;6687;47.790;7.322;2023-05-27T15:03:17;98993.28;;;35.32;21.69
13241;BME280;6687;47.790;7.322;2023-05-27T15:05:45;98994.19;;;36.37;20.60
13241;BME280;6687;47.790;7.322;2023-05-27T15:08:12;98993.44;;;36.01;21.53
13241;BME280;6687;47.790;7.322;2023-05-27T15:10:41;98987.59;;;34.90;21.91
13241;BME280;6687;47.790;7.322;2023-05-27T15:13:08;98992.00;;;36.41;21.07
13241;BME280;6687;47.790;7.322;2023-05-27T15:15:37;98993.16;;;36.04;22.68
13241;BME280;6687;47.790;7.322;2023-05-27T15:18:05;99003.59;;;34.63;22.36
13241;BME280;6687;47.790;7.322;2023-05-27T15:20:33;98989.34;;;35.89;21.84
13241;BME280;6687;47.790;7.322;2023-05-27T15:23:01;98995.38;;;33.80;24.11
13241;BME280;6687;47.790;7.322;2023-05-27T15:25:28;98987.28;;;35.82;22.66
13241;BME280;6687;47.790;7.322;2023-05-27T15:27:54;98991.09;;;34.07;22.98
13241;BME280;6687;47.790;7.322;2023-05-27T15:30:21;98984.94;;;33.77;23.81
13241;BME280;6687;47.790;7.322;2023-05-27T15:32:48;98977.94;;;35.33;21.90
13241;BME280;6687;47.790;7.322;2023-05-27T15:35:14;98987.25;;;34.19;23.86
13241;BME280;6687;47.790;7.322;2023-05-27T15:37:41;98980.34;;;35.18;22.65
13241;BME280;6687;47.790;7.322;2023-05-27T15:40:10;98980.94;;;33.91;23.28
13241;BME280;6687;47.790;7.322;2023-05-27T15:42:37;98981.03;;;34.09;23.38
13241;BME280;6687;47.790;7.322;2023-05-27T15:45:04;98980.88;;;34.76;24.09
13241;BME280;6687;47.790;7.322;2023-05-27T15:47:31;98988.38;;;34.54;23.15
13241;BME280;6687;47.790;7.322;2023-05-27T15:49:57;98986.84;;;34.42;23.48
13241;BME280;6687;47.790;7.322;2023-05-27T15:52:24;98987.75;;;33.85;23.95
13241;BME280;6687;47.790;7.322;2023-05-27T15:54:51;98989.09;;;34.09;23.61
13241;BME280;6687;47.790;7.322;2023-05-27T15:57:19;98976.84;;;34.34;23.51
13241;BME280;6687;47.790;7.322;2023-05-27T15:59:46;98977.59;;;33.40;24.18
13241;BME280;6687;47.790;7.322;2023-05-27T16:02:13;98970.22;;;34.29;23.63
13241;BME280;6687;47.790;7.322;2023-05-27T16:04:40;98977.91;;;33.37;24.63
13241;BME280;6687;47.790;7.322;2023-05-27T16:07:07;98972.97;;;34.74;23.90
13241;BME280;6687;47.790;7.322;2023-05-27T16:09:34;98966.59;;;34.93;23.70
13241;BME280;6687;47.790;7.322;2023-05-27T16:12:00;98968.38;;;34.29;24.53
13241;BME280;6687;47.790;7.322;2023-05-27T16:14:29;98966.38;;;34.31;24.03
13241;BME280;6687;47.790;7.322;2023-05-27T16:16:55;98967.28;;;33.45;24.01
13241;BME280;6687;47.790;7.322;2023-05-27T16:19:22;98976.75;;;33.69;24.29
13241;BME280;6687;47.790;7.322;2023-05-27T16:21:49;98971.91;;;33.04;24.39
13241;BME280;6687;47.790;7.322;2023-05-27T16:24:16;98970.69;;;33.67;23.88
13241;BME280;6687;47.790;7.322;2023-05-27T16:26:42;98968.50;;;34.27;23.53
13241;BME280;6687;47.790;7.322;2023-05-27T16:29:09;98971.81;;;33.35;24.23
13241;BME280;6687;47.790;7.322;2023-05-27T16:31:37;98972.25;;;33.21;24.80
13241;BME280;6687;47.790;7.322;2023-05-27T16:34:04;98974.03;;;32.91;24.71
13241;BME280;6687;47.790;7.322;2023-05-27T16:36:32;98965.41;;;32.78;25.20
13241;BME280;6687;47.790;7.322;2023-05-27T16:38:59;98967.66;;;32.92;24.87
13241;BME280;6687;47.790;7.322;2023-05-27T16:41:25;98967.19;;;32.17;25.49
13241;BME280;6687;47.790;7.322;2023-05-27T16:43:52;98969.31;;;32.64;25.48
13241;BME280;6687;47.790;7.322;2023-05-27T16:46:19;98966.88;;;31.68;26.26
13241;BME280;6687;47.790;7.322;2023-05-27T16:48:47;98966.56;;;31.29;26.70
13241;BME280;6687;47.790;7.322;2023-05-27T16:51:14;98960.81;;;32.18;25.69
13241;BME280;6687;47.790;7.322;2023-05-27T16:53:40;98963.13;;;32.73;25.00
13241;BME280;6687;47.790;7.322;2023-05-27T16:56:07;98964.69;;;31.83;26.03
13241;BME280;6687;47.790;7.322;2023-05-27T16:58:34;98966.84;;;32.10;25.98
13241;BME280;6687;47.790;7.322;2023-05-27T17:01:01;98959.91;;;31.87;26.53
13241;BME280;6687;47.790;7.322;2023-05-27T17:03:27;98964.06;;;31.70;27.17
13241;BME280;6687;47.790;7.322;2023-05-27T17:05:56;98961.44;;;31.59;26.60
13241;BME280;6687;47.790;7.322;2023-05-27T17:08:24;98970.44;;;31.37;26.61
13241;BME280;6687;47.790;7.322;2023-05-27T17:10:51;98966.84;;;30.71;27.04
13241;BME280;6687;47.790;7.322;2023-05-27T17:13:17;98969.31;;;31.71;26.51
13241;BME280;6687;47.790;7.322;2023-05-27T17:15:44;98961.91;;;31.10;27.39
13241;BME280;6687;47.790;7.322;2023-05-27T17:18:11;98965.47;;;31.32;27.08
13241;BME280;6687;47.790;7.322;2023-05-27T17:20:38;98957.25;;;32.08;26.93
13241;BME280;6687;47.790;7.322;2023-05-27T17:23:06;98971.00;;;31.51;27.52
13241;BME280;6687;47.790;7.322;2023-05-27T17:25:32;98964.16;;;30.83;27.60
13241;BME280;6687;47.790;7.322;2023-05-27T17:27:59;98967.84;;;30.59;27.83
13241;BME280;6687;47.790;7.322;2023-05-27T17:30:26;98967.28;;;31.10;27.25
13241;BME280;6687;47.790;7.322;2023-05-27T17:32:53;98969.63;;;31.78;26.86
13241;BME280;6687;47.790;7.322;2023-05-27T17:35:19;98961.44;;;31.59;27.19
13241;BME280;6687;47.790;7.322;2023-05-27T17:37:47;98966.06;;;31.03;27.09
13241;BME280;6687;47.790;7.322;2023-05-27T17:40:15;98967.19;;;31.96;26.67
13241;BME280;6687;47.790;7.322;2023-05-27T17:42:42;98967.41;;;30.43;28.07
13241;BME280;6687;47.790;7.322;2023-05-27T17:45:09;98972.13;;;30.17;28.64
13241;BME280;6687;47.790;7.322;2023-05-27T17:47:36;98970.06;;;30.09;29.20
13241;BME280;6687;47.790;7.322;2023-05-27T17:50:03;98978.06;;;29.98;28.06
13241;BME280;6687;47.790;7.322;2023-05-27T17:52:30;98979.97;;;29.84;30.03
13241;BME280;6687;47.790;7.322;2023-05-27T17:54:56;98979.13;;;29.48;28.93
13241;BME280;6687;47.790;7.322;2023-05-27T17:57:25;98974.66;;;30.52;27.89
13241;BME280;6687;47.790;7.322;2023-05-27T17:59:53;98977.81;;;30.68;27.83
13241;BME280;6687;47.790;7.322;2023-05-27T18:02:20;98982.44;;;29.99;28.59
13241;BME280;6687;47.790;7.322;2023-05-27T18:04:46;98978.19;;;30.30;28.51
13241;BME280;6687;47.790;7.322;2023-05-27T18:07:13;98979.53;;;29.66;28.69
13241;BME280;6687;47.790;7.322;2023-05-27T18:09:41;98984.13;;;29.18;29.46
13241;BME280;6687;47.790;7.322;2023-05-27T18:12:08;98984.38;;;29.50;29.30
13241;BME280;6687;47.790;7.322;2023-05-27T18:14:36;98989.56;;;28.92;30.05
13241;BME280;6687;47.790;7.322;2023-05-27T18:17:04;98983.69;;;28.87;30.10
13241;BME280;6687;47.790;7.322;2023-05-27T18:19:31;98986.88;;;29.29;30.36
13241;BME280;6687;47.790;7.322;2023-05-27T18:21:58;98990.09;;;28.34;30.56
13241;BME280;6687;47.790;7.322;2023-05-27T18:24:25;98990.00;;;28.36;30.45
13241;BME280;6687;47.790;7.322;2023-05-27T18:26:51;98995.56;;;28.83;30.57
13241;BME280;6687;47.790;7.322;2023-05-27T18:29:18;98990.84;;;28.86;30.01
13241;BME280;6687;47.790;7.322;2023-05-27T18:31:47;98992.97;;;27.67;31.63
13241;BME280;6687;47.790;7.322;2023-05-27T18:34:14;98998.41;;;27.66;31.37